Rogersville, Pennsylvania
Current Conditions -  °F | °C
As of 7:53 AM on Friday 19 Dec 2014 (Local Time) from KMGW Reporting Station
Overcast Overcast  
Wind Chill: 22°   Ceiling: 2400
Heat Index: 28°   Visibility: 10mi
Dew Point: 20°   Wind: 6mph
Humidity: 72%   Direction: 230°SW
Pressure: 30.21"   Gusts: NA
Location:  39.88°N, 80.27°W
Report Text: KMGW 191253Z 23005KT 10SM OVC024 M02/M07 A3021 RMK AO2 SLP245 T10221067
Loading
Personal Weather Stations






























Interactive Weather Map New forecast layout! Learn more

10-Day Weather Forecast

Advertisements
Track Severe Weather on mobile